createdAt,value
2018-06-25T00:01:03.049Z,14.43
2018-06-25T00:02:11.701Z,14.43
2018-06-25T00:03:20.609Z,14.37
2018-06-25T00:04:29.262Z,14.45
2018-06-25T00:05:37.898Z,14.45
2018-06-25T00:06:46.551Z,14.41
2018-06-25T00:07:55.188Z,14.45
2018-06-25T00:09:04.379Z,14.43
2018-06-25T00:10:13.016Z,14.4
2018-06-25T00:11:21.662Z,14.43
2018-06-25T00:12:30.305Z,14.48
2018-06-25T00:13:38.953Z,14.44
2018-06-25T00:14:47.603Z,14.43
2018-06-25T00:15:56.241Z,14.41
2018-06-25T00:17:04.882Z,14.44
2018-06-25T00:18:13.525Z,14.41
2018-06-25T00:19:22.177Z,14.43
2018-06-25T00:20:30.816Z,14.45
2018-06-25T00:21:39.464Z,14.48
2018-06-25T00:22:48.102Z,14.43
2018-06-25T00:23:56.756Z,14.48
2018-06-25T00:25:05.394Z,14.41
2018-06-25T00:26:14.043Z,14.45
2018-06-25T00:27:22.677Z,14.41
2018-06-25T00:28:31.335Z,14.38
2018-06-25T00:29:39.976Z,14.4
2018-06-25T00:30:48.624Z,14.44
2018-06-25T00:31:57.260Z,14.48
2018-06-25T00:33:06.178Z,14.45
2018-06-25T00:34:14.828Z,14.43
2018-06-25T00:35:23.477Z,14.4
2018-06-25T00:36:32.124Z,14.44
2018-06-25T00:37:41.026Z,14.43
2018-06-25T00:38:49.943Z,14.44
2018-06-25T00:39:58.583Z,14.41
2018-06-25T00:41:07.235Z,14.49
2018-06-25T00:42:15.873Z,14.48
2018-06-25T00:43:24.781Z,14.44
2018-06-25T00:44:33.694Z,14.45
2018-06-25T00:45:42.342Z,14.38
2018-06-25T00:46:50.988Z,14.43
2018-06-25T00:47:59.636Z,14.44
2018-06-25T00:49:08.279Z,14.48
2018-06-25T00:50:16.926Z,14.43
2018-06-25T00:51:25.568Z,14.43
2018-06-25T00:52:34.212Z,14.44
2018-06-25T00:53:42.855Z,14.4
2018-06-25T00:54:51.496Z,14.48
2018-06-25T00:56:00.145Z,14.49
2018-06-25T00:57:08.789Z,14.4
2018-06-25T00:58:17.433Z,14.4
2018-06-25T00:59:26.078Z,14.41
2018-06-25T01:00:34.727Z,14.44
2018-06-25T01:01:43.367Z,14.4
2018-06-25T01:02:52.011Z,14.44
2018-06-25T01:04:00.917Z,14.41
2018-06-25T01:05:09.840Z,14.48
2018-06-25T01:06:18.481Z,14.49
2018-06-25T01:07:27.134Z,14.41
2018-06-25T01:08:35.767Z,14.43
2018-06-25T01:09:44.411Z,14.48
2018-06-25T01:10:53.056Z,14.48
2018-06-25T01:12:01.700Z,14.38
2018-06-25T01:13:10.347Z,14.41
2018-06-25T01:14:18.985Z,14.44
2018-06-25T01:15:27.893Z,14.43
2018-06-25T01:16:36.542Z,14.4
2018-06-25T01:17:45.190Z,14.43
2018-06-25T01:18:54.095Z,14.43
2018-06-25T01:20:02.740Z,14.41
2018-06-25T01:21:11.385Z,14.44
2018-06-25T01:22:20.032Z,14.48
2018-06-25T01:23:28.669Z,14.45
2018-06-25T01:24:37.318Z,14.43
2018-06-25T01:25:45.959Z,14.34
2018-06-25T01:26:54.872Z,14.26
2018-06-25T01:28:03.515Z,14.4
2018-06-25T01:29:12.158Z,14.4
2018-06-25T01:30:20.799Z,14.4
2018-06-25T01:31:29.444Z,14.36
2018-06-25T01:32:38.089Z,14.37
2018-06-25T01:33:46.731Z,14.34
2018-06-25T01:34:55.377Z,14.37
2018-06-25T01:36:04.548Z,14.37
2018-06-25T01:37:13.198Z,14.37
2018-06-25T01:38:21.843Z,14.36
2018-06-25T01:39:30.748Z,14.37
2018-06-25T01:40:39.386Z,14.37
2018-06-25T01:41:48.042Z,14.38
2018-06-25T01:42:56.685Z,14.41
2018-06-25T01:44:05.332Z,14.36
2018-06-25T01:45:14.232Z,14.38
2018-06-25T01:46:22.883Z,14.4
2018-06-25T01:47:31.528Z,14.41
2018-06-25T01:48:40.174Z,14.4
2018-06-25T01:49:48.820Z,14.41
2018-06-25T01:50:57.460Z,14.38
2018-06-25T01:52:06.373Z,14.36
2018-06-25T01:53:15.014Z,14.33
2018-06-25T01:54:23.671Z,14.33
2018-06-25T01:55:32.311Z,14.36
2018-06-25T01:56:40.960Z,14.41
2018-06-25T01:57:50.132Z,14.37
2018-06-25T01:58:59.057Z,14.37
2018-06-25T02:00:07.693Z,14.36
2018-06-25T02:01:16.339Z,14.3
2018-06-25T02:02:24.982Z,14.34
2018-06-25T02:03:33.637Z,14.33
2018-06-25T02:04:42.279Z,14.37
2018-06-25T02:05:50.921Z,14.31
2018-06-25T02:06:59.562Z,14.36
2018-06-25T02:08:08.469Z,14.36
2018-06-25T02:09:17.123Z,14.34
2018-06-25T02:10:25.767Z,14.4
2018-06-25T02:11:34.416Z,14.37
2018-06-25T02:12:43.052Z,14.3
2018-06-25T02:13:51.706Z,14.37
2018-06-25T02:15:00.345Z,14.28
2018-06-25T02:16:08.993Z,14.33
2018-06-25T02:17:17.628Z,14.26
2018-06-25T02:18:26.282Z,14.28
2018-06-25T02:19:35.192Z,14.28
2018-06-25T02:20:43.838Z,14.28
2018-06-25T02:21:52.485Z,14.36
2018-06-25T02:23:01.123Z,14.26
2018-06-25T02:24:10.036Z,14.28
2018-06-25T02:25:18.684Z,14.25
2018-06-25T02:26:27.329Z,14.28
2018-06-25T02:27:35.968Z,14.36
2018-06-25T02:28:44.622Z,14.25
2018-06-25T02:29:53.782Z,14.3
2018-06-25T02:31:02.441Z,14.3
2018-06-25T02:32:11.350Z,14.28
2018-06-25T02:33:19.998Z,14.22
2018-06-25T02:34:28.640Z,14.22
2018-06-25T02:35:37.293Z,14.22
2018-06-25T02:36:45.926Z,14.22
2018-06-25T02:37:54.574Z,14.19
2018-06-25T02:39:03.220Z,14.26
2018-06-25T02:40:12.141Z,14.26
2018-06-25T02:41:21.048Z,14.22
2018-06-25T02:42:29.693Z,14.22
2018-06-25T02:43:38.346Z,14.16
2018-06-25T02:44:46.989Z,14.23
2018-06-25T02:45:55.639Z,14.25
2018-06-25T02:47:04.572Z,14.18
2018-06-25T02:48:13.216Z,14.19
2018-06-25T02:49:22.117Z,14.13
2018-06-25T02:50:30.771Z,14.23
2018-06-25T02:51:39.420Z,14.22
2018-06-25T02:52:48.062Z,14.22
2018-06-25T02:53:56.968Z,14.2
2018-06-25T02:55:05.897Z,14.23
2018-06-25T02:56:14.822Z,14.2
2018-06-25T02:57:23.739Z,14.23
2018-06-25T02:58:32.381Z,14.26
2018-06-25T02:59:41.032Z,14.26
2018-06-25T03:00:49.680Z,14.25
2018-06-25T03:01:58.520Z,14.22
2018-06-25T03:03:07.319Z,14.25
2018-06-25T03:04:16.100Z,14.28
2018-06-25T03:05:24.794Z,14.22
2018-06-25T03:06:33.538Z,14.28
2018-06-25T03:07:42.771Z,14.23
2018-06-25T03:08:51.410Z,14.26
2018-06-25T03:10:00.056Z,14.25
2018-06-25T03:11:08.702Z,14.25
2018-06-25T03:12:17.353Z,14.2
2018-06-25T03:13:25.994Z,14.23
2018-06-25T03:14:34.640Z,14.25
2018-06-25T03:15:43.554Z,14.22
2018-06-25T03:16:52.195Z,14.3
2018-06-25T03:18:00.845Z,14.16
2018-06-25T03:19:09.498Z,14.26
2018-06-25T03:20:18.139Z,14.26
2018-06-25T03:21:27.044Z,14.19
2018-06-25T03:22:35.696Z,14.2
2018-06-25T03:23:44.606Z,14.23
2018-06-25T03:24:53.252Z,14.23
2018-06-25T03:26:01.889Z,14.18
2018-06-25T03:27:10.801Z,14.2
2018-06-25T03:28:19.704Z,14.22
2018-06-25T03:29:28.349Z,14.2
2018-06-25T03:30:37.516Z,14.22
2018-06-25T03:31:46.185Z,14.26
2018-06-25T03:32:55.094Z,14.22
2018-06-25T03:34:03.740Z,14.18
2018-06-25T03:35:12.377Z,14.28
2018-06-25T03:36:21.025Z,14.23
2018-06-25T03:37:29.668Z,14.26
2018-06-25T03:38:38.318Z,14.23
2018-06-25T03:39:47.219Z,14.28
2018-06-25T03:40:55.869Z,14.34
2018-06-25T03:42:04.517Z,14.26
2018-06-25T03:43:13.211Z,14.31
2018-06-25T03:44:22.127Z,14.33
2018-06-25T03:45:30.766Z,14.28
2018-06-25T03:46:39.411Z,14.41
2018-06-25T03:47:48.057Z,14.3
2018-06-25T03:48:56.701Z,14.36
2018-06-25T03:50:05.607Z,14.3
2018-06-25T03:51:14.252Z,14.36
2018-06-25T03:52:23.162Z,14.36
2018-06-25T03:53:31.799Z,14.4
2018-06-25T03:54:40.448Z,14.41
2018-06-25T03:55:49.091Z,14.37
2018-06-25T03:56:57.738Z,14.36
2018-06-25T03:58:06.654Z,14.37
2018-06-25T03:59:15.296Z,14.38
2018-06-25T04:00:23.941Z,14.34
2018-06-25T04:01:32.584Z,14.37
2018-06-25T04:02:41.236Z,14.36
2018-06-25T04:03:49.872Z,14.37
2018-06-25T04:04:58.516Z,14.31
2018-06-25T04:06:07.424Z,14.36
2018-06-25T04:07:16.072Z,14.36
2018-06-25T04:08:24.711Z,14.45
2018-06-25T04:09:33.364Z,14.45
2018-06-25T04:10:42.269Z,14.36
2018-06-25T04:11:51.181Z,14.37
2018-06-25T04:12:59.828Z,14.36
2018-06-25T04:14:08.484Z,14.4
2018-06-25T04:15:17.385Z,14.38
2018-06-25T04:16:26.029Z,14.44
2018-06-25T04:17:34.677Z,14.41
2018-06-25T04:18:43.321Z,14.43
2018-06-25T04:19:51.965Z,14.38
2018-06-25T04:21:00.605Z,14.43
2018-06-25T04:22:09.528Z,14.43
2018-06-25T04:23:18.185Z,14.43
2018-06-25T04:24:26.835Z,14.45
2018-06-25T04:25:35.472Z,14.38
2018-06-25T04:26:44.119Z,14.41
2018-06-25T04:27:52.770Z,14.43
2018-06-25T04:29:01.401Z,14.48
2018-06-25T04:30:10.041Z,14.43
2018-06-25T04:31:18.687Z,14.43
2018-06-25T04:32:27.332Z,14.53
2018-06-25T04:33:35.981Z,14.49
2018-06-25T04:34:44.628Z,14.56
2018-06-25T04:35:53.269Z,14.55
2018-06-25T04:37:01.917Z,14.49
2018-06-25T04:38:10.558Z,14.45
2018-06-25T04:39:19.205Z,14.52
2018-06-25T04:40:27.844Z,14.63
2018-06-25T04:41:36.778Z,14.61
2018-06-25T04:42:45.681Z,14.61
2018-06-25T04:43:54.335Z,14.7
2018-06-25T04:45:02.970Z,14.63
2018-06-25T04:46:11.616Z,14.63
2018-06-25T04:47:20.258Z,14.7
2018-06-25T04:48:28.913Z,14.63
2018-06-25T04:49:37.818Z,14.67
2018-06-25T04:50:46.460Z,14.66
2018-06-25T04:51:55.103Z,14.67
2018-06-25T04:53:04.009Z,14.7
2018-06-25T04:54:12.668Z,14.73
2018-06-25T04:55:21.308Z,14.74
2018-06-25T04:56:29.959Z,14.7
2018-06-25T04:57:39.119Z,14.71
2018-06-25T04:58:47.773Z,14.74
2018-06-25T04:59:56.414Z,14.71
2018-06-25T05:01:05.072Z,14.71
2018-06-25T05:02:14.047Z,14.7
2018-06-25T05:03:22.961Z,14.73
2018-06-25T05:04:31.601Z,14.73
2018-06-25T05:05:40.250Z,14.73
2018-06-25T05:06:48.884Z,14.7
2018-06-25T05:07:57.533Z,14.63
2018-06-25T05:09:06.182Z,14.73
2018-06-25T05:10:14.830Z,14.62
2018-06-25T05:11:23.479Z,14.7
2018-06-25T05:12:32.113Z,14.7
2018-06-25T05:13:40.762Z,14.74
2018-06-25T05:14:49.672Z,14.78
2018-06-25T05:15:58.327Z,14.85
2018-06-25T05:17:06.966Z,14.81
2018-06-25T05:18:15.619Z,14.9
2018-06-25T05:19:24.530Z,14.89
2018-06-25T05:20:33.182Z,14.87
2018-06-25T05:21:41.817Z,14.92
2018-06-25T05:22:50.729Z,14.9
2018-06-25T05:23:59.375Z,14.87
2018-06-25T05:25:08.303Z,14.87
2018-06-25T05:26:17.210Z,14.92
2018-06-25T05:27:25.853Z,14.89
2018-06-25T05:28:34.496Z,14.93
2018-06-25T05:29:43.140Z,14.92
2018-06-25T05:30:51.801Z,14.9
2018-06-25T05:32:00.445Z,14.9
2018-06-25T05:33:09.093Z,14.96
2018-06-25T05:34:17.728Z,14.92
2018-06-25T05:35:26.382Z,14.96
2018-06-25T05:36:35.025Z,14.92
2018-06-25T05:37:43.672Z,14.99
2018-06-25T05:38:52.306Z,14.94
2018-06-25T05:40:00.961Z,15
2018-06-25T05:41:09.608Z,14.99
2018-06-25T05:42:18.249Z,14.97
2018-06-25T05:43:26.886Z,15.02
2018-06-25T05:44:35.533Z,14.97
2018-06-25T05:45:44.181Z,15.12
2018-06-25T05:46:52.827Z,15.17
2018-06-25T05:48:01.470Z,15.17
2018-06-25T05:49:10.104Z,15.14
2018-06-25T05:50:18.755Z,15.05
2018-06-25T05:51:27.393Z,15.12
2018-06-25T05:52:36.316Z,15.17
2018-06-25T05:53:44.952Z,15.17
2018-06-25T05:54:53.870Z,15.11
2018-06-25T05:56:02.775Z,15.17
2018-06-25T05:57:11.422Z,15.29
2018-06-25T05:58:20.319Z,15.36
2018-06-25T05:59:28.966Z,15.47
2018-06-25T06:00:37.610Z,15.5
2018-06-25T06:01:46.534Z,15.54
2018-06-25T06:02:55.179Z,15.47
2018-06-25T06:04:03.823Z,15.51
2018-06-25T06:05:12.468Z,15.51
2018-06-25T06:06:21.109Z,15.62
2018-06-25T06:07:29.763Z,15.5
2018-06-25T06:08:38.404Z,15.52
2018-06-25T06:09:47.055Z,15.52
2018-06-25T06:10:55.691Z,15.51
2018-06-25T06:12:04.347Z,15.6
2018-06-25T06:13:12.987Z,15.63
2018-06-25T06:14:21.637Z,15.78
2018-06-25T06:15:30.549Z,15.75
2018-06-25T06:16:39.208Z,15.73
2018-06-25T06:17:47.851Z,15.78
2018-06-25T06:18:56.497Z,15.76
2018-06-25T06:20:05.137Z,15.8
2018-06-25T06:21:13.785Z,15.78
2018-06-25T06:22:22.436Z,15.85
2018-06-25T06:23:31.083Z,15.87
2018-06-25T06:24:39.732Z,15.88
2018-06-25T06:25:48.368Z,15.91
2018-06-25T06:26:57.020Z,15.91
2018-06-25T06:28:05.659Z,15.92
2018-06-25T06:29:14.313Z,15.87
2018-06-25T06:30:22.950Z,15.85
2018-06-25T06:31:31.599Z,15.84
2018-06-25T06:32:40.240Z,15.85
2018-06-25T06:33:48.893Z,15.9
2018-06-25T06:34:57.540Z,15.84
2018-06-25T06:36:06.185Z,15.84
2018-06-25T06:37:14.833Z,15.81
2018-06-25T06:38:23.479Z,15.8
2018-06-25T06:39:32.123Z,15.87
2018-06-25T06:40:41.033Z,15.85
2018-06-25T06:41:49.674Z,15.9
2018-06-25T06:42:58.318Z,15.84
2018-06-25T06:44:06.974Z,15.84
2018-06-25T06:45:15.615Z,16
2018-06-25T06:46:24.264Z,16.12
2018-06-25T06:47:33.167Z,16.22
2018-06-25T06:48:41.817Z,16.37
2018-06-25T06:49:50.462Z,16.43
2018-06-25T06:50:59.107Z,16.51
2018-06-25T06:52:07.751Z,16.64
2018-06-25T06:53:16.400Z,16.69
2018-06-25T06:54:25.043Z,16.64
2018-06-25T06:55:33.693Z,16.69
2018-06-25T06:56:42.334Z,16.76
2018-06-25T06:57:51.066Z,16.76
2018-06-25T06:58:59.633Z,16.74
2018-06-25T07:00:08.281Z,16.79
2018-06-25T07:01:16.931Z,16.65
2018-06-25T07:02:25.573Z,16.58
2018-06-25T07:03:34.223Z,16.55
2018-06-25T07:04:42.928Z,16.57
2018-06-25T07:05:51.527Z,16.41
2018-06-25T07:07:00.435Z,16.43
2018-06-25T07:08:09.082Z,16.55
2018-06-25T07:09:17.727Z,16.68
2018-06-25T07:10:26.790Z,16.73
2018-06-25T07:11:35.695Z,16.83
2018-06-25T07:12:44.344Z,16.89
2018-06-25T07:13:52.989Z,16.98
2018-06-25T07:15:01.639Z,17.04
2018-06-25T07:16:10.284Z,17.23
2018-06-25T07:17:18.931Z,17.31
2018-06-25T07:18:27.575Z,17.53
2018-06-25T07:19:36.220Z,17.52
2018-06-25T07:20:44.877Z,17.53
2018-06-25T07:21:53.520Z,17.5
2018-06-25T07:23:02.440Z,17.54
2018-06-25T07:24:11.082Z,17.53
2018-06-25T07:25:19.734Z,17.54
2018-06-25T07:26:28.381Z,17.49
2018-06-25T07:27:37.031Z,17.54
2018-06-25T07:28:45.719Z,17.5
2018-06-25T07:29:54.327Z,17.47
2018-06-25T07:31:02.974Z,17.34
2018-06-25T07:32:11.891Z,17.2
2018-06-25T07:33:20.570Z,17.19
2018-06-25T07:34:29.200Z,17.13
2018-06-25T07:35:37.850Z,17.2
2018-06-25T07:36:46.496Z,17.27
2018-06-25T07:37:55.146Z,17.3
2018-06-25T07:39:03.794Z,17.38
2018-06-25T07:40:12.440Z,17.44
2018-06-25T07:41:21.088Z,17.49
2018-06-25T07:42:29.729Z,17.44
2018-06-25T07:43:38.381Z,17.54
2018-06-25T07:44:47.292Z,17.53
2018-06-25T07:45:55.940Z,17.47
2018-06-25T07:47:04.654Z,17.46
2018-06-25T07:48:13.233Z,17.38
2018-06-25T07:49:22.141Z,17.32
2018-06-25T07:50:30.787Z,17.3
2018-06-25T07:51:39.430Z,17.37
2018-06-25T07:52:48.090Z,17.34
2018-06-25T07:53:56.737Z,17.42
2018-06-25T07:55:05.652Z,17.5
2018-06-25T07:56:14.569Z,17.46
2018-06-25T07:57:23.218Z,17.57
2018-06-25T07:58:32.129Z,17.76
2018-06-25T07:59:41.036Z,17.78
2018-06-25T08:00:49.689Z,17.93
2018-06-25T08:01:58.332Z,17.94
2018-06-25T08:03:06.981Z,18.02
2018-06-25T08:04:15.625Z,17.95
2018-06-25T08:05:24.278Z,18.05
2018-06-25T08:06:32.925Z,18.05
2018-06-25T08:07:41.842Z,18
2018-06-25T08:08:50.488Z,18
2018-06-25T08:09:59.144Z,17.82
2018-06-25T08:11:07.785Z,17.78
2018-06-25T08:12:16.430Z,17.72
2018-06-25T08:13:25.075Z,17.57
2018-06-25T08:14:33.719Z,17.63
2018-06-25T08:15:42.375Z,17.59
2018-06-25T08:16:51.290Z,17.73
2018-06-25T08:17:59.936Z,17.78
2018-06-25T08:19:08.580Z,17.97
2018-06-25T08:20:17.304Z,18.11
2018-06-25T08:21:26.159Z,18.11
2018-06-25T08:22:34.806Z,18.13
2018-06-25T08:23:43.710Z,18.19
2018-06-25T08:24:52.364Z,18.28
2018-06-25T08:26:01.009Z,18.45
2018-06-25T08:27:09.659Z,18.45
2018-06-25T08:28:18.302Z,18.48
2018-06-25T08:29:26.953Z,18.49
2018-06-25T08:30:35.598Z,18.37
2018-06-25T08:31:44.513Z,18.41
2018-06-25T08:32:53.162Z,18.33
2018-06-25T08:34:01.818Z,18.45
2018-06-25T08:35:10.452Z,18.36
2018-06-25T08:36:19.096Z,18.46
2018-06-25T08:37:27.753Z,18.55
2018-06-25T08:38:36.391Z,18.53
2018-06-25T08:39:45.320Z,18.57
2018-06-25T08:40:53.960Z,18.43
2018-06-25T08:42:02.618Z,18.48
2018-06-25T08:43:11.259Z,18.45
2018-06-25T08:44:19.907Z,18.51
2018-06-25T08:45:28.556Z,18.51
2018-06-25T08:46:37.219Z,18.53
2018-06-25T08:47:45.859Z,18.52
2018-06-25T08:48:54.504Z,18.6
2018-06-25T08:50:03.147Z,18.61
2018-06-25T08:51:11.795Z,18.71
2018-06-25T08:52:20.452Z,18.78
2018-06-25T08:53:29.098Z,18.74
2018-06-25T08:54:37.749Z,18.85
2018-06-25T08:55:46.391Z,18.86
2018-06-25T08:56:55.108Z,18.86
2018-06-25T08:58:03.695Z,18.94
2018-06-25T08:59:12.348Z,19.08
2018-06-25T09:00:21.270Z,19.24
2018-06-25T09:01:29.928Z,19.24
2018-06-25T09:02:38.577Z,19.32
2018-06-25T09:03:47.495Z,19.26
2018-06-25T09:04:56.136Z,19.23
2018-06-25T09:06:04.786Z,19.12
2018-06-25T09:07:13.439Z,19
2018-06-25T09:08:22.091Z,18.97
2018-06-25T09:09:30.802Z,19
2018-06-25T09:10:39.382Z,18.97
2018-06-25T09:11:48.037Z,18.97
2018-06-25T09:12:56.682Z,18.83
2018-06-25T09:14:05.339Z,18.85
2018-06-25T09:15:14.692Z,18.88
2018-06-25T09:16:23.280Z,18.86
2018-06-25T09:17:32.454Z,18.89
2018-06-25T09:18:41.113Z,19.05
2018-06-25T09:19:50.013Z,19.04
2018-06-25T09:20:58.664Z,19.17
2018-06-25T09:22:07.340Z,19.23
2018-06-25T09:23:16.247Z,19.35
2018-06-25T09:24:24.902Z,19.41
2018-06-25T09:25:33.552Z,19.53
2018-06-25T09:26:42.202Z,19.62
2018-06-25T09:27:51.138Z,19.67
2018-06-25T09:29:00.073Z,19.84
2018-06-25T09:30:08.718Z,19.87
2018-06-25T09:31:17.367Z,19.9
2018-06-25T09:32:26.274Z,19.99
2018-06-25T09:33:34.989Z,19.97
2018-06-25T09:34:44.334Z,19.92
2018-06-25T09:35:53.520Z,19.93
2018-06-25T09:37:02.425Z,20
2018-06-25T09:38:11.346Z,20.07
2018-06-25T09:39:19.993Z,20.1
2018-06-25T09:40:28.646Z,20.22
2018-06-25T09:41:37.711Z,20.11
2018-06-25T09:42:45.941Z,20.14
2018-06-25T09:43:54.593Z,20.19
2018-06-25T09:45:03.243Z,20.21
2018-06-25T09:46:11.896Z,20.07
2018-06-25T09:47:20.539Z,20.03
2018-06-25T09:48:29.189Z,20.12
2018-06-25T09:49:37.842Z,20.04
2018-06-25T09:50:46.501Z,20.17
2018-06-25T09:51:55.146Z,20.18
2018-06-25T09:53:03.795Z,20.08
2018-06-25T09:54:12.709Z,20.1
2018-06-25T09:55:21.360Z,20.07
2018-06-25T09:56:30.009Z,20.14
2018-06-25T09:57:38.925Z,20.18
2018-06-25T09:58:47.572Z,20.44
2018-06-25T09:59:56.229Z,20.59
2018-06-25T10:01:04.875Z,20.8
2018-06-25T10:02:13.525Z,20.89
2018-06-25T10:03:22.232Z,20.88
2018-06-25T10:04:31.087Z,20.8
2018-06-25T10:05:39.742Z,20.89
2018-06-25T10:06:48.395Z,20.86
2018-06-25T10:07:57.041Z,20.77
2018-06-25T10:09:05.686Z,20.67
2018-06-25T10:10:14.341Z,20.59
2018-06-25T10:11:23.255Z,20.59
2018-06-25T10:12:31.904Z,20.56
2018-06-25T10:13:40.552Z,20.53
2018-06-25T10:14:49.210Z,20.56
2018-06-25T10:15:57.854Z,20.59
2018-06-25T10:17:06.783Z,20.44
2018-06-25T10:18:15.429Z,20.37
2018-06-25T10:19:24.346Z,20.19
2018-06-25T10:20:32.998Z,20.08
2018-06-25T10:21:41.648Z,19.84
2018-06-25T10:22:50.299Z,19.72
2018-06-25T10:23:58.941Z,19.66
2018-06-25T10:25:07.868Z,19.66
2018-06-25T10:26:16.522Z,19.62
2018-06-25T10:27:25.171Z,19.75
2018-06-25T10:28:33.850Z,19.79
2018-06-25T10:29:42.468Z,19.89
2018-06-25T10:30:51.112Z,20.08
2018-06-25T10:31:59.775Z,20.22
2018-06-25T10:33:08.411Z,20.55
2018-06-25T10:34:17.064Z,20.82
2018-06-25T10:35:25.711Z,21.01
2018-06-25T10:36:34.374Z,21.15
2018-06-25T10:37:43.551Z,21.14
2018-06-25T10:38:52.199Z,21.1
2018-06-25T10:40:00.845Z,21
2018-06-25T10:41:09.492Z,20.98
2018-06-25T10:42:18.200Z,21.01
2018-06-25T10:43:26.795Z,20.86
2018-06-25T10:44:35.448Z,20.83
2018-06-25T10:45:44.093Z,20.77
2018-06-25T10:46:53.019Z,20.83
2018-06-25T10:48:01.663Z,20.75
2018-06-25T10:49:10.318Z,20.59
2018-06-25T10:50:18.960Z,20.64
2018-06-25T10:51:27.882Z,20.58
2018-06-25T10:52:36.793Z,20.59
2018-06-25T10:53:45.445Z,20.71
2018-06-25T10:54:54.087Z,20.7
2018-06-25T10:56:02.740Z,20.78
2018-06-25T10:57:11.666Z,20.89
2018-06-25T10:58:20.318Z,20.82
2018-06-25T10:59:29.126Z,20.85
2018-06-25T11:00:37.612Z,20.73
2018-06-25T11:01:46.267Z,20.89
2018-06-25T11:02:54.912Z,20.85
2018-06-25T11:04:03.572Z,21.04
2018-06-25T11:05:12.481Z,21.19
2018-06-25T11:06:21.136Z,21.17
2018-06-25T11:07:29.827Z,21.25
2018-06-25T11:08:38.830Z,21.25
2018-06-25T11:09:47.469Z,21.38
2018-06-25T11:10:56.119Z,21.33
2018-06-25T11:12:04.767Z,21.35
2018-06-25T11:13:13.426Z,21.37
2018-06-25T11:14:22.345Z,21.44
2018-06-25T11:15:31.262Z,21.43
2018-06-25T11:16:39.910Z,21.56
2018-06-25T11:17:48.560Z,21.7
2018-06-25T11:18:57.484Z,21.65
2018-06-25T11:20:06.393Z,21.78
2018-06-25T11:21:15.049Z,21.7
2018-06-25T11:22:23.691Z,21.8
2018-06-25T11:23:32.352Z,21.69
2018-06-25T11:24:40.997Z,21.69
2018-06-25T11:25:49.658Z,21.53
2018-06-25T11:26:58.372Z,21.45
2018-06-25T11:28:07.220Z,21.38
2018-06-25T11:29:16.135Z,21.26
2018-06-25T11:30:24.779Z,21.14
2018-06-25T11:31:34.066Z,21.03
2018-06-25T11:32:42.727Z,21.03
2018-06-25T11:33:51.372Z,21.07
2018-06-25T11:35:00.284Z,21.01
2018-06-25T11:36:08.937Z,21.03
2018-06-25T11:37:17.771Z,21.19
2018-06-25T11:38:26.562Z,21.35
2018-06-25T11:39:35.221Z,21.38
2018-06-25T11:40:43.862Z,21.6
2018-06-25T11:41:52.572Z,21.68
2018-06-25T11:43:01.162Z,21.77
2018-06-25T11:44:09.817Z,21.68
2018-06-25T11:45:18.457Z,21.77
2018-06-25T11:46:27.567Z,21.7
2018-06-25T11:47:36.215Z,21.59
2018-06-25T11:48:44.871Z,21.6
2018-06-25T11:49:53.512Z,21.44
2018-06-25T11:51:02.442Z,21.48
2018-06-25T11:52:11.097Z,21.38
2018-06-25T11:53:19.750Z,21.37
2018-06-25T11:54:28.403Z,21.38
2018-06-25T11:55:37.045Z,21.56
2018-06-25T11:56:45.698Z,21.6
2018-06-25T11:57:54.609Z,21.78
2018-06-25T11:59:03.269Z,21.84
2018-06-25T12:00:11.911Z,21.99
2018-06-25T12:01:20.567Z,22
2018-06-25T12:02:29.255Z,22.16
2018-06-25T12:03:38.343Z,22.1
2018-06-25T12:04:46.984Z,22.21
2018-06-25T12:05:55.651Z,22.1
2018-06-25T12:07:04.302Z,22.16
2018-06-25T12:08:13.229Z,22.12
2018-06-25T12:09:21.878Z,22.16
2018-06-25T12:10:30.530Z,22.08
2018-06-25T12:11:39.170Z,22.12
2018-06-25T12:12:47.823Z,21.96
2018-06-25T12:13:56.487Z,21.94
2018-06-25T12:15:05.140Z,21.83
2018-06-25T12:16:13.794Z,21.68
2018-06-25T12:17:22.451Z,21.63
2018-06-25T12:18:31.096Z,21.53
2018-06-25T12:19:39.794Z,21.58
2018-06-25T12:20:48.681Z,21.58
2018-06-25T12:21:57.325Z,21.44
2018-06-25T12:23:06.052Z,21.44
2018-06-25T12:24:14.637Z,21.59
2018-06-25T12:25:23.289Z,21.66
2018-06-25T12:26:31.938Z,21.75
2018-06-25T12:27:40.906Z,21.91
2018-06-25T12:28:49.510Z,21.97
2018-06-25T12:29:58.162Z,22.18
2018-06-25T12:31:06.816Z,22.21
2018-06-25T12:32:15.461Z,22.4
2018-06-25T12:33:24.114Z,22.68
2018-06-25T12:34:32.773Z,22.77
2018-06-25T12:35:41.428Z,22.73
2018-06-25T12:36:50.337Z,22.88
2018-06-25T12:37:59.028Z,22.89
2018-06-25T12:39:07.646Z,22.74
2018-06-25T12:40:16.302Z,22.59
2018-06-25T12:41:25.018Z,22.59
2018-06-25T12:42:33.941Z,22.61
2018-06-25T12:43:42.591Z,22.58
2018-06-25T12:44:51.248Z,22.49
2018-06-25T12:45:59.898Z,22.34
2018-06-25T12:47:08.563Z,22.46
2018-06-25T12:48:17.256Z,22.36
2018-06-25T12:49:25.863Z,22.46
2018-06-25T12:50:34.519Z,22.47
2018-06-25T12:51:43.169Z,22.51
2018-06-25T12:52:52.088Z,22.53
2018-06-25T12:54:00.797Z,22.61
2018-06-25T12:55:09.395Z,22.7
2018-06-25T12:56:18.310Z,22.81
2018-06-25T12:57:26.962Z,22.74
2018-06-25T12:58:35.609Z,22.73
2018-06-25T12:59:44.263Z,22.71
2018-06-25T13:00:52.915Z,22.58
2018-06-25T13:02:01.569Z,22.51
2018-06-25T13:03:10.231Z,22.46
2018-06-25T13:04:19.144Z,22.51
2018-06-25T13:05:27.797Z,22.43
2018-06-25T13:06:36.450Z,22.38
2018-06-25T13:07:45.104Z,22.3
2018-06-25T13:08:53.750Z,22.36
2018-06-25T13:10:02.406Z,22.52
2018-06-25T13:11:11.321Z,22.59
2018-06-25T13:12:19.975Z,22.51
2018-06-25T13:13:28.623Z,22.59
2018-06-25T13:14:37.542Z,22.58
2018-06-25T13:15:46.192Z,22.58
2018-06-25T13:16:54.848Z,22.43
2018-06-25T13:18:03.496Z,22.51
2018-06-25T13:19:12.149Z,22.53
2018-06-25T13:20:20.799Z,22.56
2018-06-25T13:21:29.456Z,22.65
2018-06-25T13:22:38.104Z,22.74
2018-06-25T13:23:46.754Z,22.83
2018-06-25T13:24:55.407Z,22.92
2018-06-25T13:26:04.327Z,23.02
2018-06-25T13:27:12.968Z,23.14
2018-06-25T13:28:21.624Z,23.1
2018-06-25T13:29:30.271Z,23.1
2018-06-25T13:30:38.932Z,23.16
2018-06-25T13:31:47.576Z,23.08
2018-06-25T13:32:56.235Z,23.04
2018-06-25T13:34:04.882Z,22.98
2018-06-25T13:35:13.547Z,23.08
2018-06-25T13:36:22.190Z,23.2
2018-06-25T13:37:30.846Z,23.16
2018-06-25T13:38:39.492Z,23.2
2018-06-25T13:39:48.160Z,23.26
2018-06-25T13:40:56.811Z,23.23
2018-06-25T13:42:05.459Z,23.16
2018-06-25T13:43:14.109Z,22.98
2018-06-25T13:44:22.785Z,23.01
2018-06-25T13:45:31.487Z,22.98
2018-06-25T13:46:40.069Z,23.07
2018-06-25T13:47:49.252Z,23.18
2018-06-25T13:48:57.898Z,23.11
2018-06-25T13:50:06.554Z,23.23
2018-06-25T13:51:15.202Z,23.28
2018-06-25T13:52:23.858Z,23.25
2018-06-25T13:53:32.505Z,23.25
2018-06-25T13:54:41.181Z,23.26
2018-06-25T13:55:49.811Z,23.18
2018-06-25T13:56:58.466Z,23.04
2018-06-25T13:58:07.111Z,22.96
2018-06-25T13:59:15.764Z,22.92
2018-06-25T14:00:24.424Z,22.86
2018-06-25T14:01:33.335Z,22.81
2018-06-25T14:02:41.989Z,22.74
2018-06-25T14:03:50.643Z,22.53
2018-06-25T14:04:59.296Z,22.44
2018-06-25T14:06:07.948Z,22.41
2018-06-25T14:07:16.613Z,22.38
2018-06-25T14:08:25.256Z,22.34
2018-06-25T14:09:33.918Z,22.44
2018-06-25T14:10:42.564Z,22.47
2018-06-25T14:11:51.482Z,22.46
2018-06-25T14:13:00.125Z,22.38
2018-06-25T14:14:09.043Z,22.25
2018-06-25T14:15:17.691Z,22.21
2018-06-25T14:16:27.114Z,22.08
2018-06-25T14:17:35.603Z,22.12
2018-06-25T14:18:44.251Z,22.12
2018-06-25T14:19:53.161Z,22.15
2018-06-25T14:21:01.813Z,22.1
2018-06-25T14:22:10.472Z,22.22
2018-06-25T14:23:19.122Z,22.31
2018-06-25T14:24:28.039Z,22.37
2018-06-25T14:25:36.681Z,22.36
2018-06-25T14:26:45.336Z,22.41
2018-06-25T14:27:53.985Z,22.46
2018-06-25T14:29:02.635Z,22.47
2018-06-25T14:30:11.288Z,22.46
2018-06-25T14:31:19.943Z,22.46
2018-06-25T14:32:28.593Z,22.53
2018-06-25T14:33:37.593Z,22.56
2018-06-25T14:34:46.198Z,22.71
2018-06-25T14:35:54.854Z,22.77
2018-06-25T14:37:03.507Z,22.84
2018-06-25T14:38:12.162Z,22.84
2018-06-25T14:39:21.090Z,22.83
2018-06-25T14:40:30.098Z,22.74
2018-06-25T14:41:38.699Z,22.7
2018-06-25T14:42:47.345Z,22.61
2018-06-25T14:43:56.000Z,22.61
2018-06-25T14:45:04.656Z,22.53
2018-06-25T14:46:13.574Z,22.43
2018-06-25T14:47:22.224Z,22.38
2018-06-25T14:48:30.878Z,22.44
2018-06-25T14:49:39.525Z,22.37